sensor_id;sensor_type;location;lat;lon;timestamp;temperature;humidity
1534;DHT22;760;48.822;9.304;2024-01-16T05:09:13;-1.30;99.90
1534;DHT22;760;48.822;9.304;2024-01-16T05:11:38;-1.30;99.90
1534;DHT22;760;48.822;9.304;2024-01-16T05:14:04;-1.30;99.90
1534;DHT22;760;48.822;9.304;2024-01-16T05:16:29;-1.30;99.90
1534;DHT22;760;48.822;9.304;2024-01-16T05:18:55;-1.30;99.90
1534;DHT22;760;48.822;9.304;2024-01-16T05:21:21;-1.30;99.90
1534;DHT22;760;48.822;9.304;2024-01-16T05:23:46;-1.20;99.90
1534;DHT22;760;48.822;9.304;2024-01-16T05:26:12;-1.30;99.90
1534;DHT22;760;48.822;9.304;2024-01-16T05:28:41;-1.20;99.90
1534;DHT22;760;48.822;9.304;2024-01-16T05:31:07;-1.20;99.90
1534;DHT22;760;48.822;9.304;2024-01-16T05:33:32;-1.20;99.90
1534;DHT22;760;48.822;9.304;2024-01-16T05:35:58;-1.20;99.90
1534;DHT22;760;48.822;9.304;2024-01-16T05:38:24;-1.20;99.90
1534;DHT22;760;48.822;9.304;2024-01-16T05:40:49;-1.30;99.90
1534;DHT22;760;48.822;9.304;2024-01-16T05:43:15;-1.30;99.90
1534;DHT22;760;48.822;9.304;2024-01-16T05:45:40;-1.30;99.90
1534;DHT22;760;48.822;9.304;2024-01-16T05:48:06;-1.30;99.90
1534;DHT22;760;48.822;9.304;2024-01-16T05:50:36;-1.30;99.90
1534;DHT22;760;48.822;9.304;2024-01-16T05:53:02;-1.30;99.90
1534;DHT22;760;48.822;9.304;2024-01-16T05:55:28;-1.30;99.90
1534;DHT22;760;48.822;9.304;2024-01-16T05:57:57;-1.20;99.90
1534;DHT22;760;48.822;9.304;2024-01-16T06:00:24;-1.20;99.90
1534;DHT22;760;48.822;9.304;2024-01-16T06:02:50;-1.20;99.90
1534;DHT22;760;48.822;9.304;2024-01-16T06:05:16;-1.20;99.90
1534;DHT22;760;48.822;9.304;2024-01-16T06:07:41;-1.30;99.90
1534;DHT22;760;48.822;9.304;2024-01-16T06:10:07;-1.30;99.90
1534;DHT22;760;48.822;9.304;2024-01-16T06:12:34;-1.30;99.90
1534;DHT22;760;48.822;9.304;2024-01-16T06:14:59;-1.30;99.90
1534;DHT22;760;48.822;9.304;2024-01-16T06:17:25;-1.30;99.90
1534;DHT22;760;48.822;9.304;2024-01-16T06:19:51;-1.30;99.90
1534;DHT22;760;48.822;9.304;2024-01-16T06:22:17;-1.20;99.90
1534;DHT22;760;48.822;9.304;2024-01-16T06:24:42;-1.20;99.90
1534;DHT22;760;48.822;9.304;2024-01-16T06:27:08;-1.20;99.90
1534;DHT22;760;48.822;9.304;2024-01-16T06:29:33;-1.10;99.90
1534;DHT22;760;48.822;9.304;2024-01-16T06:31:59;-1.10;99.90
1534;DHT22;760;48.822;9.304;2024-01-16T06:34:25;-1.00;99.90
1534;DHT22;760;48.822;9.304;2024-01-16T06:36:50;-1.00;99.90
1534;DHT22;760;48.822;9.304;2024-01-16T06:39:17;-1.00;99.90
1534;DHT22;760;48.822;9.304;2024-01-16T06:41:43;-1.00;99.90
1534;DHT22;760;48.822;9.304;2024-01-16T06:44:08;-1.10;99.90
1534;DHT22;760;48.822;9.304;2024-01-16T06:46:34;-1.10;99.90
1534;DHT22;760;48.822;9.304;2024-01-16T06:49:00;-1.10;99.90
1534;DHT22;760;48.822;9.304;2024-01-16T06:51:27;-1.10;99.90
1534;DHT22;760;48.822;9.304;2024-01-16T06:53:52;-1.10;99.90
1534;DHT22;760;48.822;9.304;2024-01-16T06:56:18;-1.00;99.90
1534;DHT22;760;48.822;9.304;2024-01-16T06:58:43;-1.00;99.90
1534;DHT22;760;48.822;9.304;2024-01-16T07:01:09;-1.00;99.90
1534;DHT22;760;48.822;9.304;2024-01-16T07:03:35;-1.00;99.90
1534;DHT22;760;48.822;9.304;2024-01-16T07:06:01;-1.00;99.90
1534;DHT22;760;48.822;9.304;2024-01-16T07:08:28;-1.00;99.90
1534;DHT22;760;48.822;9.304;2024-01-16T07:10:53;-0.90;99.90
1534;DHT22;760;48.822;9.304;2024-01-16T07:13:19;-0.90;99.90
1534;DHT22;760;48.822;9.304;2024-01-16T07:15:45;-0.90;99.90
1534;DHT22;760;48.822;9.304;2024-01-16T07:18:10;-0.80;99.90
1534;DHT22;760;48.822;9.304;2024-01-16T07:20:36;-0.80;99.90
1534;DHT22;760;48.822;9.304;2024-01-16T07:23:02;-0.70;99.90
1534;DHT22;760;48.822;9.304;2024-01-16T07:25:28;-0.70;99.90
1534;DHT22;760;48.822;9.304;2024-01-16T07:27:53;-0.70;99.90
1534;DHT22;760;48.822;9.304;2024-01-16T07:30:19;-0.60;99.90
1534;DHT22;760;48.822;9.304;2024-01-16T07:32:45;-0.60;99.90
1534;DHT22;760;48.822;9.304;2024-01-16T07:35:10;-0.60;99.90
1534;DHT22;760;48.822;9.304;2024-01-16T07:37:36;-0.60;99.90
1534;DHT22;760;48.822;9.304;2024-01-16T07:40:02;-0.50;99.90
1534;DHT22;760;48.822;9.304;2024-01-16T07:42:28;-0.50;99.90
1534;DHT22;760;48.822;9.304;2024-01-16T07:45:03;-0.50;99.90
1534;DHT22;760;48.822;9.304;2024-01-16T07:47:30;-0.50;99.90
1534;DHT22;760;48.822;9.304;2024-01-16T07:49:57;-0.40;99.90
1534;DHT22;760;48.822;9.304;2024-01-16T07:52:22;-0.40;99.90
1534;DHT22;760;48.822;9.304;2024-01-16T07:54:48;-0.40;99.90
1534;DHT22;760;48.822;9.304;2024-01-16T07:57:13;-0.30;99.90
1534;DHT22;760;48.822;9.304;2024-01-16T07:59:39;-0.20;99.90
1534;DHT22;760;48.822;9.304;2024-01-16T08:02:06;-0.20;99.90
1534;DHT22;760;48.822;9.304;2024-01-16T08:04:32;-0.20;99.90
1534;DHT22;760;48.822;9.304;2024-01-16T08:06:58;-0.20;99.90
1534;DHT22;760;48.822;9.304;2024-01-16T08:09:23;-0.10;99.90
1534;DHT22;760;48.822;9.304;2024-01-16T08:11:49;-0.10;99.90
1534;DHT22;760;48.822;9.304;2024-01-16T08:14:15;0.00;99.90
1534;DHT22;760;48.822;9.304;2024-01-16T08:16:40;0.10;99.90
1534;DHT22;760;48.822;9.304;2024-01-16T08:19:06;0.10;99.90
1534;DHT22;760;48.822;9.304;2024-01-16T08:21:31;0.20;99.90
1534;DHT22;760;48.822;9.304;2024-01-16T08:23:57;0.40;99.90
1534;DHT22;760;48.822;9.304;2024-01-16T08:26:23;0.50;99.90
1534;DHT22;760;48.822;9.304;2024-01-16T08:28:48;0.60;99.90
1534;DHT22;760;48.822;9.304;2024-01-16T08:31:17;0.70;99.90
1534;DHT22;760;48.822;9.304;2024-01-16T08:33:44;0.80;99.90
1534;DHT22;760;48.822;9.304;2024-01-16T08:36:09;0.90;99.90
1534;DHT22;760;48.822;9.304;2024-01-16T08:38:35;1.00;99.90
1534;DHT22;760;48.822;9.304;2024-01-16T08:41:00;1.10;99.90
1534;DHT22;760;48.822;9.304;2024-01-16T08:43:26;1.20;99.90
1534;DHT22;760;48.822;9.304;2024-01-16T08:45:52;1.30;99.90
1534;DHT22;760;48.822;9.304;2024-01-16T08:48:17;1.30;99.90
1534;DHT22;760;48.822;9.304;2024-01-16T08:50:43;1.30;99.90
1534;DHT22;760;48.822;9.304;2024-01-16T08:53:09;1.20;99.90
1534;DHT22;760;48.822;9.304;2024-01-16T08:55:34;1.20;99.90
1534;DHT22;760;48.822;9.304;2024-01-16T08:58:00;1.30;99.90
1534;DHT22;760;48.822;9.304;2024-01-16T09:00:26;1.30;99.90
1534;DHT22;760;48.822;9.304;2024-01-16T09:02:52;1.30;99.90
1534;DHT22;760;48.822;9.304;2024-01-16T09:05:18;1.40;99.90
1534;DHT22;760;48.822;9.304;2024-01-16T09:07:47;1.40;99.90
1534;DHT22;760;48.822;9.304;2024-01-16T09:10:12;1.40;99.90
1534;DHT22;760;48.822;9.304;2024-01-16T09:12:38;1.50;99.90
1534;DHT22;760;48.822;9.304;2024-01-16T09:15:04;1.50;99.90
1534;DHT22;760;48.822;9.304;2024-01-16T09:17:30;1.50;99.90
1534;DHT22;760;48.822;9.304;2024-01-16T09:19:55;1.50;99.90
1534;DHT22;760;48.822;9.304;2024-01-16T09:22:21;1.60;99.90
1534;DHT22;760;48.822;9.304;2024-01-16T09:24:47;1.70;99.90
1534;DHT22;760;48.822;9.304;2024-01-16T09:27:12;1.70;99.80
1534;DHT22;760;48.822;9.304;2024-01-16T09:29:40;1.80;99.60
1534;DHT22;760;48.822;9.304;2024-01-16T09:32:05;1.80;99.20
1534;DHT22;760;48.822;9.304;2024-01-16T09:34:31;1.70;98.80
1534;DHT22;760;48.822;9.304;2024-01-16T09:36:57;1.80;99.00
1534;DHT22;760;48.822;9.304;2024-01-16T09:39:26;1.80;98.60
1534;DHT22;760;48.822;9.304;2024-01-16T09:41:51;1.90;98.60
1534;DHT22;760;48.822;9.304;2024-01-16T09:44:17;1.90;98.50
1534;DHT22;760;48.822;9.304;2024-01-16T09:46:44;1.80;98.20
1534;DHT22;760;48.822;9.304;2024-01-16T09:49:14;1.70;98.60
1534;DHT22;760;48.822;9.304;2024-01-16T09:51:40;1.80;98.90
1534;DHT22;760;48.822;9.304;2024-01-16T09:54:05;1.90;98.70
1534;DHT22;760;48.822;9.304;2024-01-16T09:56:36;2.00;98.50
1534;DHT22;760;48.822;9.304;2024-01-16T09:59:05;2.00;98.30
1534;DHT22;760;48.822;9.304;2024-01-16T10:01:33;2.10;98.40
1534;DHT22;760;48.822;9.304;2024-01-16T10:03:59;2.20;97.70
1534;DHT22;760;48.822;9.304;2024-01-16T10:06:27;2.20;98.70
1534;DHT22;760;48.822;9.304;2024-01-16T10:08:53;2.40;97.80
1534;DHT22;760;48.822;9.304;2024-01-16T10:11:18;2.50;97.40
1534;DHT22;760;48.822;9.304;2024-01-16T10:13:44;2.60;97.90
1534;DHT22;760;48.822;9.304;2024-01-16T10:16:10;2.60;97.10
1534;DHT22;760;48.822;9.304;2024-01-16T10:18:35;2.70;96.80
1534;DHT22;760;48.822;9.304;2024-01-16T10:21:04;2.80;97.20
1534;DHT22;760;48.822;9.304;2024-01-16T10:23:30;3.00;96.90
1534;DHT22;760;48.822;9.304;2024-01-16T10:26:08;3.20;96.50
1534;DHT22;760;48.822;9.304;2024-01-16T10:28:34;3.20;95.50
1534;DHT22;760;48.822;9.304;2024-01-16T10:31:07;3.40;95.50
1534;DHT22;760;48.822;9.304;2024-01-16T10:33:33;3.40;94.50
1534;DHT22;760;48.822;9.304;2024-01-16T10:36:16;3.50;94.50
1534;DHT22;760;48.822;9.304;2024-01-16T10:38:45;3.50;94.60
1534;DHT22;760;48.822;9.304;2024-01-16T10:41:15;3.70;95.10
1534;DHT22;760;48.822;9.304;2024-01-16T10:44:03;3.80;94.80
1534;DHT22;760;48.822;9.304;2024-01-16T10:46:29;3.90;95.10
1534;DHT22;760;48.822;9.304;2024-01-16T10:49:03;3.80;94.60
1534;DHT22;760;48.822;9.304;2024-01-16T10:51:29;3.80;94.30
1534;DHT22;760;48.822;9.304;2024-01-16T10:54:00;3.80;94.60
1534;DHT22;760;48.822;9.304;2024-01-16T10:56:29;4.10;94.90
1534;DHT22;760;48.822;9.304;2024-01-16T10:59:11;4.40;94.20
1534;DHT22;760;48.822;9.304;2024-01-16T11:01:38;4.80;95.10
1534;DHT22;760;48.822;9.304;2024-01-16T11:04:05;5.30;93.80
1534;DHT22;760;48.822;9.304;2024-01-16T11:06:32;5.80;93.20
1534;DHT22;760;48.822;9.304;2024-01-16T11:08:59;6.30;92.50
1534;DHT22;760;48.822;9.304;2024-01-16T11:11:26;6.80;91.60
1534;DHT22;760;48.822;9.304;2024-01-16T11:13:53;7.30;91.50
1534;DHT22;760;48.822;9.304;2024-01-16T11:16:20;7.80;87.90
1534;DHT22;760;48.822;9.304;2024-01-16T11:18:46;7.90;87.80
1534;DHT22;760;48.822;9.304;2024-01-16T11:21:14;8.00;86.50
1534;DHT22;760;48.822;9.304;2024-01-16T11:23:41;7.90;85.20
1534;DHT22;760;48.822;9.304;2024-01-16T11:28:53;7.20;84.20
1534;DHT22;760;48.822;9.304;2024-01-16T11:31:35;6.90;85.90
1534;DHT22;760;48.822;9.304;2024-01-16T11:34:02;6.70;84.60
1534;DHT22;760;48.822;9.304;2024-01-16T11:36:49;6.20;85.10
1534;DHT22;760;48.822;9.304;2024-01-16T11:39:25;6.00;85.50
1534;DHT22;760;48.822;9.304;2024-01-16T11:41:58;5.70;85.30
1534;DHT22;760;48.822;9.304;2024-01-16T11:47:06;5.00;86.20
1534;DHT22;760;48.822;9.304;2024-01-16T11:49:32;4.70;88.10
1534;DHT22;760;48.822;9.304;2024-01-16T11:51:58;4.60;88.80
1534;DHT22;760;48.822;9.304;2024-01-16T11:54:24;4.40;89.60
1534;DHT22;760;48.822;9.304;2024-01-16T11:59:59;4.20;90.40
1534;DHT22;760;48.822;9.304;2024-01-16T12:05:12;4.20;90.80
1534;DHT22;760;48.822;9.304;2024-01-16T12:07:46;4.20;90.10
1534;DHT22;760;48.822;9.304;2024-01-16T12:10:18;4.20;90.50
1534;DHT22;760;48.822;9.304;2024-01-16T12:12:45;4.20;90.90
1534;DHT22;760;48.822;9.304;2024-01-16T12:15:18;4.30;91.60
1534;DHT22;760;48.822;9.304;2024-01-16T12:17:57;4.50;92.20
1534;DHT22;760;48.822;9.304;2024-01-16T12:20:25;4.60;91.20
1534;DHT22;760;48.822;9.304;2024-01-16T12:22:58;4.50;90.90
1534;DHT22;760;48.822;9.304;2024-01-16T12:25:28;4.40;89.90
1534;DHT22;760;48.822;9.304;2024-01-16T12:27:59;4.40;90.00
1534;DHT22;760;48.822;9.304;2024-01-16T12:30:29;4.50;91.20
1534;DHT22;760;48.822;9.304;2024-01-16T12:33:09;4.50;90.00
1534;DHT22;760;48.822;9.304;2024-01-16T12:38:05;4.40;87.30
1534;DHT22;760;48.822;9.304;2024-01-16T12:40:32;4.40;87.30
1534;DHT22;760;48.822;9.304;2024-01-16T12:42:58;4.30;87.50
1534;DHT22;760;48.822;9.304;2024-01-16T12:45:24;4.40;86.50
1534;DHT22;760;48.822;9.304;2024-01-16T12:47:53;4.40;86.90
1534;DHT22;760;48.822;9.304;2024-01-16T12:50:28;4.40;87.90
1534;DHT22;760;48.822;9.304;2024-01-16T12:53:08;4.30;89.60
1534;DHT22;760;48.822;9.304;2024-01-16T12:55:39;4.30;89.10
1534;DHT22;760;48.822;9.304;2024-01-16T12:58:18;4.40;88.00
1534;DHT22;760;48.822;9.304;2024-01-16T13:00:48;4.40;87.80
1534;DHT22;760;48.822;9.304;2024-01-16T13:03:21;4.40;87.20
1534;DHT22;760;48.822;9.304;2024-01-16T13:05:58;4.50;87.50
1534;DHT22;760;48.822;9.304;2024-01-16T13:08:24;4.60;88.50
1534;DHT22;760;48.822;9.304;2024-01-16T13:11:02;4.70;86.80
1534;DHT22;760;48.822;9.304;2024-01-16T13:13:29;4.80;87.80
1534;DHT22;760;48.822;9.304;2024-01-16T13:15:55;5.00;87.10
1534;DHT22;760;48.822;9.304;2024-01-16T13:18:23;5.00;88.70
1534;DHT22;760;48.822;9.304;2024-01-16T13:20:51;5.10;86.30
1534;DHT22;760;48.822;9.304;2024-01-16T13:23:17;5.00;84.70
1534;DHT22;760;48.822;9.304;2024-01-16T13:25:44;5.00;86.10
1534;DHT22;760;48.822;9.304;2024-01-16T13:28:14;5.00;89.20
1534;DHT22;760;48.822;9.304;2024-01-16T13:30:41;5.00;88.30
1534;DHT22;760;48.822;9.304;2024-01-16T13:33:07;5.10;85.40
1534;DHT22;760;48.822;9.304;2024-01-16T13:35:35;5.10;87.60
1534;DHT22;760;48.822;9.304;2024-01-16T13:38:01;5.10;84.60
1534;DHT22;760;48.822;9.304;2024-01-16T13:40:29;5.10;83.80
1534;DHT22;760;48.822;9.304;2024-01-16T13:42:55;5.00;83.10
1534;DHT22;760;48.822;9.304;2024-01-16T13:45:21;5.00;83.30
1534;DHT22;760;48.822;9.304;2024-01-16T13:47:46;5.00;82.40
1534;DHT22;760;48.822;9.304;2024-01-16T13:50:12;5.00;82.40
1534;DHT22;760;48.822;9.304;2024-01-16T13:52:38;4.90;83.00
1534;DHT22;760;48.822;9.304;2024-01-16T13:55:07;4.90;84.20
1534;DHT22;760;48.822;9.304;2024-01-16T13:57:33;4.90;86.60
1534;DHT22;760;48.822;9.304;2024-01-16T14:00:13;5.00;85.00
1534;DHT22;760;48.822;9.304;2024-01-16T14:02:40;4.90;82.30
1534;DHT22;760;48.822;9.304;2024-01-16T14:05:09;4.80;82.00
1534;DHT22;760;48.822;9.304;2024-01-16T14:07:44;4.80;83.80
1534;DHT22;760;48.822;9.304;2024-01-16T14:10:14;4.70;83.70
1534;DHT22;760;48.822;9.304;2024-01-16T14:12:41;4.70;84.50
1534;DHT22;760;48.822;9.304;2024-01-16T14:15:11;4.60;84.10
1534;DHT22;760;48.822;9.304;2024-01-16T14:17:53;4.40;83.70
1534;DHT22;760;48.822;9.304;2024-01-16T14:20:20;4.20;83.70
1534;DHT22;760;48.822;9.304;2024-01-16T14:22:49;4.10;84.70
1534;DHT22;760;48.822;9.304;2024-01-16T14:25:14;4.10;86.20
1534;DHT22;760;48.822;9.304;2024-01-16T14:27:45;4.00;85.00
1534;DHT22;760;48.822;9.304;2024-01-16T14:30:12;4.00;84.80
1534;DHT22;760;48.822;9.304;2024-01-16T14:32:43;3.90;85.00
1534;DHT22;760;48.822;9.304;2024-01-16T14:35:10;3.80;84.90
1534;DHT22;760;48.822;9.304;2024-01-16T14:37:37;3.70;84.90
1534;DHT22;760;48.822;9.304;2024-01-16T14:40:04;3.70;85.10
1534;DHT22;760;48.822;9.304;2024-01-16T14:42:45;3.60;85.50
1534;DHT22;760;48.822;9.304;2024-01-16T14:45:13;3.60;87.40
1534;DHT22;760;48.822;9.304;2024-01-16T14:47:40;3.50;88.20
1534;DHT22;760;48.822;9.304;2024-01-16T14:50:08;3.50;87.60
1534;DHT22;760;48.822;9.304;2024-01-16T14:52:35;3.40;87.60
1534;DHT22;760;48.822;9.304;2024-01-16T14:55:01;3.30;87.50
1534;DHT22;760;48.822;9.304;2024-01-16T14:57:27;3.30;87.00
1534;DHT22;760;48.822;9.304;2024-01-16T14:59:56;3.30;87.10
1534;DHT22;760;48.822;9.304;2024-01-16T15:02:21;3.20;87.00
1534;DHT22;760;48.822;9.304;2024-01-16T15:04:47;3.30;87.00
1534;DHT22;760;48.822;9.304;2024-01-16T15:07:14;3.20;87.00
1534;DHT22;760;48.822;9.304;2024-01-16T15:09:40;3.10;87.50
1534;DHT22;760;48.822;9.304;2024-01-16T15:12:06;3.10;87.60
1534;DHT22;760;48.822;9.304;2024-01-16T15:14:35;2.90;87.40
1534;DHT22;760;48.822;9.304;2024-01-16T15:17:02;2.90;87.90
1534;DHT22;760;48.822;9.304;2024-01-16T15:19:28;2.80;88.30
1534;DHT22;760;48.822;9.304;2024-01-16T15:21:54;2.70;89.10
1534;DHT22;760;48.822;9.304;2024-01-16T15:24:20;2.70;89.20
1534;DHT22;760;48.822;9.304;2024-01-16T15:26:54;2.60;89.40
1534;DHT22;760;48.822;9.304;2024-01-16T15:29:20;2.60;89.90
1534;DHT22;760;48.822;9.304;2024-01-16T15:31:46;2.50;90.10
1534;DHT22;760;48.822;9.304;2024-01-16T15:34:12;2.40;90.10
1534;DHT22;760;48.822;9.304;2024-01-16T15:36:37;2.40;90.20
1534;DHT22;760;48.822;9.304;2024-01-16T15:39:04;2.30;90.30
1534;DHT22;760;48.822;9.304;2024-01-16T15:41:30;2.30;90.40
1534;DHT22;760;48.822;9.304;2024-01-16T15:43:56;2.20;90.50
1534;DHT22;760;48.822;9.304;2024-01-16T15:46:23;2.10;90.60
1534;DHT22;760;48.822;9.304;2024-01-16T15:48:48;2.10;90.70
1534;DHT22;760;48.822;9.304;2024-01-16T15:51:16;2.00;90.70
1534;DHT22;760;48.822;9.304;2024-01-16T15:53:42;1.90;90.80
1534;DHT22;760;48.822;9.304;2024-01-16T15:56:07;1.80;90.90
1534;DHT22;760;48.822;9.304;2024-01-16T15:58:33;1.70;91.00
1534;DHT22;760;48.822;9.304;2024-01-16T16:01:00;1.60;91.10
1534;DHT22;760;48.822;9.304;2024-01-16T16:03:26;1.50;91.30
1534;DHT22;760;48.822;9.304;2024-01-16T16:05:51;1.40;91.50
1534;DHT22;760;48.822;9.304;2024-01-16T16:08:19;1.30;91.60
1534;DHT22;760;48.822;9.304;2024-01-16T16:10:46;1.20;91.80
1534;DHT22;760;48.822;9.304;2024-01-16T16:13:12;1.10;92.00
1534;DHT22;760;48.822;9.304;2024-01-16T16:15:41;1.10;92.30
1534;DHT22;760;48.822;9.304;2024-01-16T16:18:07;1.00;92.50
1534;DHT22;760;48.822;9.304;2024-01-16T16:20:33;0.90;93.40
1534;DHT22;760;48.822;9.304;2024-01-16T16:22:59;0.80;93.70
1534;DHT22;760;48.822;9.304;2024-01-16T16:25:25;0.80;93.70
1534;DHT22;760;48.822;9.304;2024-01-16T16:27:50;0.80;93.80
1534;DHT22;760;48.822;9.304;2024-01-16T16:30:16;0.70;93.70
1534;DHT22;760;48.822;9.304;2024-01-16T16:32:42;0.60;94.20
1534;DHT22;760;48.822;9.304;2024-01-16T16:35:08;0.50;94.10
1534;DHT22;760;48.822;9.304;2024-01-16T16:37:34;0.50;94.20
1534;DHT22;760;48.822;9.304;2024-01-16T16:39:59;0.40;94.40
1534;DHT22;760;48.822;9.304;2024-01-16T16:42:25;0.30;94.70
1534;DHT22;760;48.822;9.304;2024-01-16T16:44:53;0.20;95.10
1534;DHT22;760;48.822;9.304;2024-01-16T16:47:20;0.20;95.20
1534;DHT22;760;48.822;9.304;2024-01-16T16:49:45;0.10;95.30
1534;DHT22;760;48.822;9.304;2024-01-16T16:52:11;0.10;95.50
1534;DHT22;760;48.822;9.304;2024-01-16T16:54:37;0.00;95.70
1534;DHT22;760;48.822;9.304;2024-01-16T16:57:03;0.00;96.50
1534;DHT22;760;48.822;9.304;2024-01-16T16:59:28;0.00;96.70
1534;DHT22;760;48.822;9.304;2024-01-16T17:01:54;-0.10;96.80
1534;DHT22;760;48.822;9.304;2024-01-16T17:04:20;-0.10;97.00
1534;DHT22;760;48.822;9.304;2024-01-16T17:06:46;-0.10;97.20
1534;DHT22;760;48.822;9.304;2024-01-16T17:09:12;-0.10;97.30
1534;DHT22;760;48.822;9.304;2024-01-16T17:11:38;-0.10;98.10
1534;DHT22;760;48.822;9.304;2024-01-16T17:14:04;-0.10;99.10
1534;DHT22;760;48.822;9.304;2024-01-16T17:16:31;-0.20;99.90
1534;DHT22;760;48.822;9.304;2024-01-16T17:18:56;-0.10;99.90
1534;DHT22;760;48.822;9.304;2024-01-16T17:21:22;-0.10;99.90
1534;DHT22;760;48.822;9.304;2024-01-16T17:23:48;-0.10;99.90
1534;DHT22;760;48.822;9.304;2024-01-16T17:26:14;-0.20;99.90
1534;DHT22;760;48.822;9.304;2024-01-16T17:28:40;-0.20;99.90
1534;DHT22;760;48.822;9.304;2024-01-16T17:31:06;-0.20;99.90
1534;DHT22;760;48.822;9.304;2024-01-16T17:33:32;-0.30;99.90
1534;DHT22;760;48.822;9.304;2024-01-16T17:35:58;-0.40;99.90
1534;DHT22;760;48.822;9.304;2024-01-16T17:38:32;-0.40;99.90
1534;DHT22;760;48.822;9.304;2024-01-16T17:40:58;-0.40;99.90
1534;DHT22;760;48.822;9.304;2024-01-16T17:43:24;-0.50;99.90
1534;DHT22;760;48.822;9.304;2024-01-16T17:45:50;-0.50;99.90
1534;DHT22;760;48.822;9.304;2024-01-16T17:48:16;-0.60;99.90
1534;DHT22;760;48.822;9.304;2024-01-16T17:50:47;-0.60;99.90
1534;DHT22;760;48.822;9.304;2024-01-16T17:53:13;-0.60;99.90
1534;DHT22;760;48.822;9.304;2024-01-16T17:55:43;-0.70;99.90
1534;DHT22;760;48.822;9.304;2024-01-16T17:58:10;-0.80;99.90
1534;DHT22;760;48.822;9.304;2024-01-16T18:00:36;-0.80;99.90
1534;DHT22;760;48.822;9.304;2024-01-16T18:03:03;-0.90;99.90
1534;DHT22;760;48.822;9.304;2024-01-16T18:05:29;-0.90;99.90
1534;DHT22;760;48.822;9.304;2024-01-16T18:07:59;-0.90;99.90
1534;DHT22;760;48.822;9.304;2024-01-16T18:10:26;-1.00;99.90
1534;DHT22;760;48.822;9.304;2024-01-16T18:12:54;-1.00;99.90
1534;DHT22;760;48.822;9.304;2024-01-16T18:15:20;-1.00;99.90
1534;DHT22;760;48.822;9.304;2024-01-16T18:17:47;-1.10;99.90
1534;DHT22;760;48.822;9.304;2024-01-16T18:20:17;-1.10;99.90
1534;DHT22;760;48.822;9.304;2024-01-16T18:22:49;-1.10;99.90
1534;DHT22;760;48.822;9.304;2024-01-16T18:25:22;-1.10;99.90
1534;DHT22;760;48.822;9.304;2024-01-16T18:27:51;-1.20;99.90
1534;DHT22;760;48.822;9.304;2024-01-16T18:30:23;-1.20;99.90
1534;DHT22;760;48.822;9.304;2024-01-16T18:32:52;-1.30;99.90
1534;DHT22;760;48.822;9.304;2024-01-16T18:35:19;-1.30;99.90
1534;DHT22;760;48.822;9.304;2024-01-16T18:37:45;-1.30;99.90
1534;DHT22;760;48.822;9.304;2024-01-16T18:40:20;-1.40;99.90
1534;DHT22;760;48.822;9.304;2024-01-16T18:42:48;-1.30;99.90
1534;DHT22;760;48.822;9.304;2024-01-16T18:45:13;-1.40;99.90
1534;DHT22;760;48.822;9.304;2024-01-16T18:47:41;-1.40;99.90
1534;DHT22;760;48.822;9.304;2024-01-16T18:50:09;-1.50;99.90
1534;DHT22;760;48.822;9.304;2024-01-16T18:52:36;-1.50;99.90
1534;DHT22;760;48.822;9.304;2024-01-16T18:55:05;-1.50;99.90
1534;DHT22;760;48.822;9.304;2024-01-16T18:57:36;-1.50;99.90
1534;DHT22;760;48.822;9.304;2024-01-16T19:00:03;-1.60;99.90
1534;DHT22;760;48.822;9.304;2024-01-16T19:02:30;-1.60;99.90
1534;DHT22;760;48.822;9.304;2024-01-16T19:04:55;-1.60;99.90
1534;DHT22;760;48.822;9.304;2024-01-16T19:07:21;-1.60;99.90
1534;DHT22;760;48.822;9.304;2024-01-16T19:09:48;-1.50;99.90
1534;DHT22;760;48.822;9.304;2024-01-16T19:12:14;-1.60;99.90
1534;DHT22;760;48.822;9.304;2024-01-16T19:14:40;-1.50;99.90
1534;DHT22;760;48.822;9.304;2024-01-16T19:17:06;-1.50;99.90
1534;DHT22;760;48.822;9.304;2024-01-16T19:19:34;-1.50;99.90
1534;DHT22;760;48.822;9.304;2024-01-16T19:21:59;-1.50;99.90
1534;DHT22;760;48.822;9.304;2024-01-16T19:24:25;-1.60;99.90
1534;DHT22;760;48.822;9.304;2024-01-16T19:26:52;-1.60;99.90
1534;DHT22;760;48.822;9.304;2024-01-16T19:29:18;-1.70;99.90
1534;DHT22;760;48.822;9.304;2024-01-16T19:31:45;-1.70;99.90
1534;DHT22;760;48.822;9.304;2024-01-16T19:34:11;-1.80;99.90
1534;DHT22;760;48.822;9.304;2024-01-16T19:36:40;-1.80;99.90
1534;DHT22;760;48.822;9.304;2024-01-16T19:39:09;-1.90;99.90
1534;DHT22;760;48.822;9.304;2024-01-16T19:41:47;-1.90;99.90
1534;DHT22;760;48.822;9.304;2024-01-16T19:44:33;-2.00;99.90
1534;DHT22;760;48.822;9.304;2024-01-16T19:47:00;-2.00;99.90
1534;DHT22;760;48.822;9.304;2024-01-16T19:49:25;-2.00;99.90
1534;DHT22;760;48.822;9.304;2024-01-16T19:51:52;-2.00;99.90
1534;DHT22;760;48.822;9.304;2024-01-16T19:54:17;-2.10;99.90
1534;DHT22;760;48.822;9.304;2024-01-16T19:56:43;-2.10;99.90
1534;DHT22;760;48.822;9.304;2024-01-16T19:59:08;-2.10;99.90
1534;DHT22;760;48.822;9.304;2024-01-16T20:01:35;-2.10;99.90
1534;DHT22;760;48.822;9.304;2024-01-16T20:04:01;-2.10;99.90
1534;DHT22;760;48.822;9.304;2024-01-16T20:06:28;-2.10;99.90
1534;DHT22;760;48.822;9.304;2024-01-16T20:08:55;-2.20;99.90
1534;DHT22;760;48.822;9.304;2024-01-16T20:11:31;-2.20;99.90
1534;DHT22;760;48.822;9.304;2024-01-16T20:13:58;-2.20;99.90
1534;DHT22;760;48.822;9.304;2024-01-16T20:16:26;-2.30;99.90
1534;DHT22;760;48.822;9.304;2024-01-16T20:18:53;-2.30;99.90
1534;DHT22;760;48.822;9.304;2024-01-16T20:21:24;-2.30;99.90
1534;DHT22;760;48.822;9.304;2024-01-16T20:23:51;-2.30;99.90
1534;DHT22;760;48.822;9.304;2024-01-16T20:26:17;-2.30;99.90
1534;DHT22;760;48.822;9.304;2024-01-16T20:28:44;-2.30;99.90
1534;DHT22;760;48.822;9.304;2024-01-16T20:31:13;-2.30;99.90
1534;DHT22;760;48.822;9.304;2024-01-16T20:33:40;-2.30;99.90
1534;DHT22;760;48.822;9.304;2024-01-16T20:36:12;-2.30;99.90
1534;DHT22;760;48.822;9.304;2024-01-16T20:38:38;-2.40;99.90
1534;DHT22;760;48.822;9.304;2024-01-16T20:41:05;-2.40;99.90
1534;DHT22;760;48.822;9.304;2024-01-16T20:43:31;-2.40;99.90
1534;DHT22;760;48.822;9.304;2024-01-16T20:45:56;-2.50;99.90
1534;DHT22;760;48.822;9.304;2024-01-16T20:48:26;-2.50;99.90
1534;DHT22;760;48.822;9.304;2024-01-16T20:50:54;-2.40;99.90
1534;DHT22;760;48.822;9.304;2024-01-16T20:53:21;-2.40;99.90
1534;DHT22;760;48.822;9.304;2024-01-16T20:55:47;-2.40;99.90
1534;DHT22;760;48.822;9.304;2024-01-16T20:58:12;-2.40;99.90
1534;DHT22;760;48.822;9.304;2024-01-16T21:00:38;-2.50;99.90
1534;DHT22;760;48.822;9.304;2024-01-16T21:03:04;-2.50;99.90
1534;DHT22;760;48.822;9.304;2024-01-16T21:05:34;-2.50;99.90
1534;DHT22;760;48.822;9.304;2024-01-16T21:07:59;-2.60;99.90
1534;DHT22;760;48.822;9.304;2024-01-16T21:10:25;-2.60;99.90
1534;DHT22;760;48.822;9.304;2024-01-16T21:12:51;-2.60;99.90
1534;DHT22;760;48.822;9.304;2024-01-16T21:15:17;-2.60;99.90
1534;DHT22;760;48.822;9.304;2024-01-16T21:17:42;-2.60;99.90
1534;DHT22;760;48.822;9.304;2024-01-16T21:20:09;-2.60;99.90
1534;DHT22;760;48.822;9.304;2024-01-16T21:22:35;-2.60;99.90
1534;DHT22;760;48.822;9.304;2024-01-16T21:25:00;-2.70;99.90
1534;DHT22;760;48.822;9.304;2024-01-16T21:27:26;-2.60;99.90
1534;DHT22;760;48.822;9.304;2024-01-16T21:29:51;-2.70;99.90
1534;DHT22;760;48.822;9.304;2024-01-16T21:32:18;-2.70;99.90
1534;DHT22;760;48.822;9.304;2024-01-16T21:34:45;-2.70;99.90
1534;DHT22;760;48.822;9.304;2024-01-16T21:37:13;-2.70;99.90
1534;DHT22;760;48.822;9.304;2024-01-16T21:39:40;-2.70;99.90
1534;DHT22;760;48.822;9.304;2024-01-16T21:42:05;-2.70;99.90
1534;DHT22;760;48.822;9.304;2024-01-16T21:44:34;-2.70;99.90
1534;DHT22;760;48.822;9.304;2024-01-16T21:47:00;-2.70;99.90
1534;DHT22;760;48.822;9.304;2024-01-16T21:49:26;-2.70;99.90